Elmira, Indiana
Current Conditions -  °F | °C
As of 3:55 AM on Thursday 23 Oct 2014 (Local Time) from KIRS Reporting Station
Moderate Fog Moderate Fog  
Wind Chill: 30°   Ceiling: 100
Heat Index: 30°   Visibility: 0.5mi
Dew Point: 30°   Wind: 0mph
Humidity: 100%   Direction: NA
Pressure: 30.26"   Gusts: NA
Location:  41.6561°N, 85.3683°W
Report Text: KIRS 230755Z AUTO 00000KT 1/2SM FZFG OVC001 M01/M01 A3026 RMK AO2
Loading
Personal Weather Stations






























Interactive Weather Map
Tropical Storm Tracking
New forecast layout! Learn more

10-Day Weather Forecast

Advertisements
Track Severe Weather on mobile